createdAt,value
2022-11-19T00:01:25.368Z,10.63
2022-11-19T00:04:55.826Z,10.43
2022-11-19T00:08:23.307Z,7.72
2022-11-19T00:11:50.759Z,9.85
2022-11-19T00:15:18.261Z,10.45
2022-11-19T00:18:45.731Z,8.47
2022-11-19T00:22:13.228Z,8.07
2022-11-19T00:25:40.744Z,8.98
2022-11-19T00:29:08.226Z,8.80
2022-11-19T00:32:35.675Z,9.73
2022-11-19T00:36:03.187Z,8.52
2022-11-19T00:39:30.657Z,9.38
2022-11-19T00:42:58.168Z,8.73
2022-11-19T00:46:25.651Z,8.95
2022-11-19T00:49:53.133Z,10.32
2022-11-19T00:53:20.615Z,8.70
2022-11-19T00:56:48.081Z,9.73
2022-11-19T01:00:15.573Z,10.60
2022-11-19T01:03:43.056Z,10.77
2022-11-19T01:07:10.575Z,9.85
2022-11-19T01:10:45.086Z,9.63
2022-11-19T01:14:12.868Z,8.23
2022-11-19T01:17:40.752Z,10.60
2022-11-19T01:21:15.153Z,9.20
2022-11-19T01:24:43.551Z,9.27
2022-11-19T01:28:11.096Z,9.18
2022-11-19T01:31:38.564Z,8.57
2022-11-19T01:35:06.063Z,8.30
2022-11-19T01:38:33.548Z,11.63
2022-11-19T01:42:01.015Z,8.90
2022-11-19T01:45:28.499Z,8.85
2022-11-19T01:48:55.941Z,8.75
2022-11-19T01:52:23.499Z,9.90
2022-11-19T01:55:51.024Z,10.13
2022-11-19T01:59:18.823Z,9.43
2022-11-19T02:02:46.780Z,10.00
2022-11-19T02:06:14.248Z,8.23
2022-11-19T02:09:41.695Z,8.85
2022-11-19T02:13:09.273Z,10.20
2022-11-19T02:16:36.834Z,7.57
2022-11-19T02:20:04.328Z,6.73
2022-11-19T02:23:31.791Z,8.20
2022-11-19T02:26:59.288Z,8.80
2022-11-19T02:30:26.802Z,7.90
2022-11-19T02:33:54.306Z,8.17
2022-11-19T02:37:21.852Z,8.33
2022-11-19T02:40:49.330Z,8.47
2022-11-19T02:44:16.826Z,8.68
2022-11-19T02:47:44.324Z,9.00
2022-11-19T02:51:11.814Z,8.68
2022-11-19T02:54:39.330Z,7.20
2022-11-19T02:58:06.896Z,5.83
2022-11-19T03:01:34.514Z,8.10
2022-11-19T03:05:02.102Z,7.18
2022-11-19T03:08:29.593Z,8.77
2022-11-19T03:11:57.093Z,6.32
2022-11-19T03:15:24.553Z,8.05
2022-11-19T03:18:52.042Z,7.85
2022-11-19T03:22:19.507Z,8.50
2022-11-19T03:25:46.956Z,9.27
2022-11-19T03:29:14.441Z,7.00
2022-11-19T03:32:42.136Z,7.03
2022-11-19T03:36:09.629Z,7.40
2022-11-19T03:39:37.111Z,6.30
2022-11-19T03:43:04.616Z,7.05
2022-11-19T03:46:32.072Z,5.80
2022-11-19T03:49:59.560Z,8.13
2022-11-19T03:53:27.143Z,6.90
2022-11-19T03:56:54.655Z,5.77
2022-11-19T04:00:22.156Z,6.85
2022-11-19T04:03:49.660Z,5.90
2022-11-19T04:07:17.168Z,5.97
2022-11-19T04:10:44.692Z,4.90
2022-11-19T04:14:12.167Z,6.20
2022-11-19T04:17:39.649Z,5.70
2022-11-19T04:21:07.152Z,5.72
2022-11-19T04:24:37.437Z,8.32
2022-11-19T04:28:04.925Z,6.13
2022-11-19T04:31:32.408Z,4.82
2022-11-19T04:34:59.911Z,5.30
2022-11-19T04:38:27.414Z,6.10
2022-11-19T04:41:54.859Z,6.40
2022-11-19T04:45:22.431Z,4.97
2022-11-19T04:48:49.948Z,4.90
2022-11-19T04:52:17.465Z,5.15
2022-11-19T04:55:44.971Z,5.57
2022-11-19T04:59:12.403Z,4.60
2022-11-19T05:02:39.876Z,4.82
2022-11-19T05:06:07.353Z,4.32
2022-11-19T05:09:34.848Z,4.17
2022-11-19T05:13:02.330Z,5.15
2022-11-19T05:16:32.551Z,5.25
2022-11-19T05:20:00.033Z,6.25
2022-11-19T05:23:27.511Z,5.40
2022-11-19T05:26:54.996Z,3.75
2022-11-19T05:30:22.494Z,5.15
2022-11-19T05:33:49.965Z,4.35
2022-11-19T05:37:17.440Z,4.05
2022-11-19T05:40:44.892Z,6.18
2022-11-19T05:44:12.397Z,4.70
2022-11-19T05:47:43.334Z,4.03
2022-11-19T05:51:13.423Z,4.38
2022-11-19T05:54:40.891Z,4.53
2022-11-19T05:58:08.354Z,5.28
2022-11-19T06:01:35.836Z,3.08
2022-11-19T06:04:43.822Z,4.07
2022-11-19T06:07:51.555Z,4.45
2022-11-19T06:11:19.039Z,4.60
2022-11-19T06:14:46.556Z,5.93
2022-11-19T06:18:17.062Z,4.97
2022-11-19T06:21:44.543Z,4.75
2022-11-19T06:25:12.017Z,5.93
2022-11-19T06:28:39.490Z,3.95
2022-11-19T06:32:06.954Z,5.07
2022-11-19T06:35:34.441Z,5.28
2022-11-19T06:39:01.927Z,5.07
2022-11-19T06:42:29.380Z,3.20
2022-11-19T06:45:56.860Z,5.30
2022-11-19T06:49:24.470Z,4.05
2022-11-19T06:52:55.016Z,4.65
2022-11-19T06:56:22.636Z,5.50
2022-11-19T06:59:50.157Z,6.25
2022-11-19T07:03:17.674Z,6.20
2022-11-19T07:06:47.938Z,6.28
2022-11-19T07:10:15.758Z,5.10
2022-11-19T07:13:43.222Z,4.45
2022-11-19T07:17:13.481Z,6.53
2022-11-19T07:20:40.972Z,4.93
2022-11-19T07:24:11.454Z,5.25
2022-11-19T07:27:41.699Z,5.75
2022-11-19T07:31:09.156Z,4.80
2022-11-19T07:34:36.627Z,5.57
2022-11-19T07:38:04.055Z,4.15
2022-11-19T07:41:31.546Z,5.55
2022-11-19T07:44:59.005Z,4.00
2022-11-19T07:48:26.463Z,4.72
2022-11-19T07:51:53.980Z,5.37
2022-11-19T07:55:21.417Z,5.35
2022-11-19T07:58:48.912Z,6.00
2022-11-19T08:02:16.436Z,4.22
2022-11-19T08:05:43.951Z,5.30
2022-11-19T08:09:11.470Z,3.30
2022-11-19T08:12:38.912Z,4.63
2022-11-19T08:16:06.403Z,4.05
2022-11-19T08:19:33.853Z,3.37
2022-11-19T08:23:01.324Z,3.85
2022-11-19T08:26:28.774Z,4.20
2022-11-19T08:29:56.247Z,3.83
2022-11-19T08:33:26.623Z,4.72
2022-11-19T08:36:54.109Z,4.13
2022-11-19T08:40:24.570Z,5.15
2022-11-19T08:43:52.095Z,4.85
2022-11-19T08:47:19.530Z,4.40
2022-11-19T08:50:47.020Z,3.88
2022-11-19T08:54:14.464Z,3.38
2022-11-19T08:57:44.606Z,4.20
2022-11-19T09:01:12.137Z,4.28
2022-11-19T09:04:39.655Z,4.37
2022-11-19T09:08:07.124Z,3.63
2022-11-19T09:11:38.432Z,3.13
2022-11-19T09:15:08.712Z,4.55
2022-11-19T09:18:36.195Z,5.05
2022-11-19T09:22:03.660Z,3.35
2022-11-19T09:25:31.190Z,3.50
2022-11-19T09:28:58.672Z,3.83
2022-11-19T09:32:28.906Z,3.53
2022-11-19T09:35:56.386Z,3.45
2022-11-19T09:39:23.854Z,3.70
2022-11-19T09:42:51.311Z,3.35
2022-11-19T09:46:18.797Z,3.35
2022-11-19T09:49:46.263Z,3.35
2022-11-19T09:53:13.700Z,4.45
2022-11-19T09:56:41.166Z,4.60
2022-11-19T10:00:08.624Z,3.13
2022-11-19T10:03:41.955Z,4.15
2022-11-19T10:07:09.443Z,3.85
2022-11-19T10:10:39.768Z,3.58
2022-11-19T10:14:07.223Z,4.32
2022-11-19T10:17:34.764Z,2.95
2022-11-19T10:21:05.047Z,3.03
2022-11-19T10:24:32.545Z,4.13
2022-11-19T10:28:00.063Z,3.43
2022-11-19T10:31:27.509Z,3.67
2022-11-19T16:34:01.179Z,3.40
2022-11-19T16:37:28.678Z,2.45
2022-11-19T16:40:56.130Z,4.22
2022-11-19T16:44:23.748Z,3.17
2022-11-19T16:47:51.282Z,3.67
2022-11-19T16:51:18.768Z,3.33
2022-11-19T16:54:47.251Z,3.65
2022-11-19T16:58:14.735Z,3.53
2022-11-19T17:01:45.304Z,3.30
2022-11-19T17:05:12.784Z,3.72
2022-11-19T17:08:40.275Z,4.20
2022-11-19T17:12:07.758Z,3.05
2022-11-19T17:15:35.313Z,3.05
2022-11-19T17:19:09.997Z,3.27
2022-11-19T17:22:40.244Z,2.80
2022-11-19T17:26:08.808Z,3.35
2022-11-19T17:29:36.573Z,3.15
2022-11-19T17:33:06.923Z,3.55
2022-11-19T17:36:34.401Z,3.33
2022-11-19T17:40:01.906Z,2.92
2022-11-19T17:43:36.044Z,3.10
2022-11-19T17:50:10.656Z,3.38
2022-11-19T17:56:48.436Z,2.72
2022-11-19T18:00:16.002Z,3.28
2022-11-19T18:03:43.459Z,2.55
2022-11-19T18:07:10.995Z,3.42
2022-11-19T18:10:38.464Z,3.58
2022-11-19T18:14:05.941Z,3.25
2022-11-19T18:17:33.455Z,3.25
2022-11-19T18:21:02.371Z,3.20
2022-11-19T18:24:32.923Z,3.08
2022-11-19T18:28:00.428Z,3.95
2022-11-19T18:31:27.935Z,3.40
2022-11-19T18:34:59.208Z,4.10
2022-11-19T18:38:29.186Z,4.15
2022-11-19T18:41:59.575Z,2.63
2022-11-19T18:45:27.043Z,3.28
2022-11-19T19:00:04.112Z,2.80
2022-11-19T19:18:19.863Z,2.30
2022-11-19T19:25:28.724Z,2.70
2022-11-19T19:28:56.186Z,4.38
2022-11-19T19:32:23.685Z,3.65
2022-11-19T19:35:51.146Z,3.08
2022-11-19T19:39:22.034Z,3.33
2022-11-19T19:42:49.780Z,3.00
2022-11-19T19:46:17.290Z,3.55
2022-11-19T19:49:44.778Z,3.10
2022-11-19T19:53:12.255Z,2.42
2022-11-19T19:56:39.817Z,3.27
2022-11-19T20:00:07.280Z,3.30
2022-11-19T20:03:34.746Z,3.00
2022-11-19T20:07:02.275Z,2.38
2022-11-19T20:10:32.799Z,2.93
2022-11-19T20:14:00.269Z,3.25
2022-11-19T20:17:27.707Z,3.25
2022-11-19T20:20:55.190Z,4.57
2022-11-19T20:24:22.620Z,2.58
2022-11-19T20:27:50.104Z,3.60
2022-11-19T20:31:20.575Z,2.90
2022-11-19T20:34:48.036Z,2.80
2022-11-19T20:38:18.304Z,3.55
2022-11-19T20:41:45.758Z,3.78
2022-11-19T20:45:13.207Z,4.03
2022-11-19T20:48:41.902Z,5.18
2022-11-19T20:52:09.450Z,3.17
2022-11-19T20:55:48.578Z,4.07
2022-11-19T20:59:24.650Z,3.17
